Time;durP1;ratioP1;P1;durP2;ratioP2;P2;SDS_P1;SDS_P2;PMS_P1;PMS_P2;Temp;Humidity;BMP_temperature;BMP_pressure;BME280_temperature;BME280_humidity;BME280_pressure;Samples;Min_cycle;Max_cycle;Signal;HPM_P1;HPM_P2
2022/12/04 03:14:22;;;;;;;21.93;10.28;;;;;;;;;;1774883;80;28120;-72
2022/12/04 03:16:49;;;;;;;12.47;6.50;;;;;;;;;;1788897;80;21016;-71
2022/12/04 03:19:17;;;;;;;13.05;6.95;;;;;;;;;;1788866;80;21047;-72
2022/12/04 03:21:45;;;;;;;12.25;7.00;;;;;;;;;;1799237;78;21007;-73
2022/12/04 03:24:19;;;;;;;14.18;6.60;;;;;;;;;;1829942;78;21063;-72
2022/12/04 03:26:46;;;;;;;13.38;6.90;;;;;;;;;;1790466;78;21106;-73
2022/12/04 03:29:17;;;;;;;10.45;5.37;;;;;;;;;;1785638;80;21058;-73
2022/12/04 03:31:47;;;;;;;9.83;6.00;;;;;;;;;;1786024;80;21026;-73
2022/12/04 03:34:14;;;;;;;16.85;7.45;;;;;;;;;;1785343;80;21581;-73
2022/12/04 03:36:43;;;;;;;10.48;5.78;;;;;;;;;;1786039;80;21098;-73
2022/12/04 03:39:11;;;;;;;11.80;6.50;;;;;;;;;;1806664;78;21052;-73
2022/12/04 03:41:42;;;;;;;12.53;5.78;;;;;;;;;;1830923;78;21027;-73
2022/12/04 03:44:13;;;;;;;11.60;6.20;;;;;;;;;;1829983;78;21487;-73
2022/12/04 03:46:41;;;;;;;14.90;6.37;;;;;;;;;;1830921;78;21054;-73
2022/12/04 03:49:22;;;;;;;12.18;6.92;;;;;;;;;;1831048;78;21567;-74
2022/12/04 03:51:49;;;;;;;13.93;6.17;;;;;;;;;;1831227;78;21083;-72
2022/12/04 03:54:17;;;;;;;8.90;6.17;;;;;;;;;;1812156;78;21092;-72
2022/12/04 03:56:45;;;;;;;8.88;5.97;;;;;;;;;;1793292;78;21039;-72
2022/12/04 03:59:16;;;;;;;10.05;5.80;;;;;;;;;;1813305;79;21051;-72
2022/12/04 04:01:45;;;;;;;9.50;5.30;;;;;;;;;;1819232;78;22137;-72
2022/12/04 04:04:13;;;;;;;10.50;5.28;;;;;;;;;;1827740;78;21063;-72
2022/12/04 04:06:41;;;;;;;10.80;5.45;;;;;;;;;;1804635;78;21006;-72
2022/12/04 04:09:12;;;;;;;9.25;5.08;;;;;;;;;;1815247;78;20992;-73
2022/12/04 04:11:52;;;;;;;8.45;4.83;;;;;;;;;;1804787;78;21065;-72
2022/12/04 04:25:19;;;;;;;12.13;5.90;;;;;;;;;;1747358;80;21077;-72
2022/12/04 04:27:52;;;;;;;12.43;5.97;;;;;;;;;;1798318;80;21078;-72
2022/12/04 04:30:19;;;;;;;10.58;6.00;;;;;;;;;;1766848;81;21046;-72
2022/12/04 04:33:04;;;;;;;12.03;5.50;;;;;;;;;;1766652;81;21049;-73
2022/12/04 04:35:32;;;;;;;14.87;5.60;;;;;;;;;;1766935;81;21557;-73
2022/12/04 04:38:16;;;;;;;11.83;5.67;;;;;;;;;;1766479;81;21113;-73
2022/12/04 04:40:58;;;;;;;14.00;6.35;;;;;;;;;;1779869;79;21011;-74
2022/12/04 04:43:25;;;;;;;10.43;5.37;;;;;;;;;;1814449;79;21027;-74
2022/12/04 04:45:56;;;;;;;9.30;5.20;;;;;;;;;;1814587;79;21522;-75
2022/12/04 04:48:24;;;;;;;10.88;5.53;;;;;;;;;;1814667;79;21514;-75
2022/12/04 04:50:50;;;;;;;12.63;5.75;;;;;;;;;;1814720;79;21078;-75
2022/12/04 04:53:17;;;;;;;12.80;6.62;;;;;;;;;;1801847;78;21043;-74
2022/12/04 04:55:43;;;;;;;9.93;5.95;;;;;;;;;;1765202;80;21138;-73
2022/12/04 04:58:11;;;;;;;15.80;6.42;;;;;;;;;;1765335;80;21069;-74
2022/12/04 05:00:38;;;;;;;10.30;5.92;;;;;;;;;;1765316;80;21100;-73
2022/12/04 05:03:04;;;;;;;11.53;6.20;;;;;;;;;;1765250;80;21081;-73
2022/12/04 05:05:30;;;;;;;16.30;5.70;;;;;;;;;;1765121;80;21065;-73
2022/12/04 05:07:57;;;;;;;9.93;5.75;;;;;;;;;;1765251;81;21081;-74
2022/12/04 05:10:23;;;;;;;9.43;5.78;;;;;;;;;;1765166;80;21025;-74
2022/12/04 05:12:49;;;;;;;16.27;6.78;;;;;;;;;;1768669;80;21074;-74
2022/12/04 05:15:15;;;;;;;12.65;7.08;;;;;;;;;;1786166;80;21058;-74
2022/12/04 05:17:41;;;;;;;13.05;6.30;;;;;;;;;;1792534;80;21013;-74
2022/12/04 05:20:08;;;;;;;9.23;5.42;;;;;;;;;;1799767;80;21051;-74
2022/12/04 05:22:35;;;;;;;9.73;5.92;;;;;;;;;;1799995;80;21096;-73
2022/12/04 05:25:01;;;;;;;13.20;6.45;;;;;;;;;;1799596;80;21002;-74
2022/12/04 05:27:27;;;;;;;15.15;6.35;;;;;;;;;;1799689;80;21069;-74
2022/12/04 05:29:54;;;;;;;12.53;6.10;;;;;;;;;;1799659;80;21053;-74
2022/12/04 05:32:21;;;;;;;12.75;6.47;;;;;;;;;;1799535;80;21509;-73
2022/12/04 05:34:48;;;;;;;11.65;5.72;;;;;;;;;;1799363;80;21053;-73
2022/12/04 05:37:15;;;;;;;10.75;5.35;;;;;;;;;;1799513;80;21020;-73
2022/12/04 05:39:41;;;;;;;9.73;5.55;;;;;;;;;;1799521;80;20986;-74
2022/12/04 05:42:07;;;;;;;15.45;6.95;;;;;;;;;;1799447;80;21073;-73
2022/12/04 05:44:33;;;;;;;12.93;5.35;;;;;;;;;;1799711;80;21025;-74
2022/12/04 05:46:59;;;;;;;14.30;6.90;;;;;;;;;;1799450;80;22183;-74
2022/12/04 05:49:29;;;;;;;14.15;6.47;;;;;;;;;;1799334;80;21559;-73
2022/12/04 05:51:55;;;;;;;10.30;5.50;;;;;;;;;;1799562;80;21827;-74
2022/12/04 05:54:22;;;;;;;15.55;6.28;;;;;;;;;;1799623;80;21536;-74
2022/12/04 05:56:48;;;;;;;13.55;5.87;;;;;;;;;;1799475;80;21029;-74
2022/12/04 05:59:14;;;;;;;12.98;6.03;;;;;;;;;;1799693;80;21484;-73
2022/12/04 06:01:41;;;;;;;12.93;5.62;;;;;;;;;;1799278;80;21037;-72
2022/12/04 06:04:08;;;;;;;11.75;5.42;;;;;;;;;;1829466;78;21055;-72
2022/12/04 06:06:35;;;;;;;13.72;6.40;;;;;;;;;;1828280;78;21012;-73
2022/12/04 06:09:01;;;;;;;10.85;5.72;;;;;;;;;;1830039;78;21078;-73
2022/12/04 06:11:31;;;;;;;15.90;6.87;;;;;;;;;;1808474;78;21014;-73
2022/12/04 06:13:58;;;;;;;11.20;6.15;;;;;;;;;;1819525;78;21090;-73
2022/12/04 06:16:32;;;;;;;12.03;5.62;;;;;;;;;;1807839;78;22219;-73
2022/12/04 06:19:00;;;;;;;12.82;6.28;;;;;;;;;;1805168;79;21007;-73
2022/12/04 06:21:26;;;;;;;9.05;5.50;;;;;;;;;;1805543;79;22109;-73
2022/12/04 06:23:53;;;;;;;13.80;6.60;;;;;;;;;;1805768;79;21062;-73
2022/12/04 06:26:18;;;;;;;12.60;5.70;;;;;;;;;;1806241;79;20971;-74
2022/12/04 06:28:44;;;;;;;10.82;5.58;;;;;;;;;;1823255;78;20976;-74
2022/12/04 06:31:11;;;;;;;9.93;5.03;;;;;;;;;;1824568;78;20935;-74
2022/12/04 06:33:37;;;;;;;15.13;6.15;;;;;;;;;;1806310;79;21577;-74
2022/12/04 06:36:05;;;;;;;14.20;5.97;;;;;;;;;;1806192;79;21006;-74
2022/12/04 06:38:31;;;;;;;10.23;6.05;;;;;;;;;;1806088;79;21034;-74
2022/12/04 06:40:57;;;;;;;15.23;5.92;;;;;;;;;;1806397;79;20964;-74
2022/12/04 06:43:23;;;;;;;8.63;5.28;;;;;;;;;;1811224;78;21034;-75
2022/12/04 06:48:37;;;;;;;12.35;5.12;;;;;;;;;;1776553;78;77889;-80
2022/12/04 06:51:05;;;;;;;12.40;5.85;;;;;;;;;;1755901;81;21015;-80
2022/12/04 06:53:31;;;;;;;12.35;5.15;;;;;;;;;;1741102;81;21536;-78
2022/12/04 06:55:58;;;;;;;14.87;5.65;;;;;;;;;;1766967;81;21014;-83
2022/12/04 06:58:25;;;;;;;9.23;4.87;;;;;;;;;;1764097;81;21047;-83
2022/12/04 07:00:51;;;;;;;13.03;5.55;;;;;;;;;;1762059;81;21029;-82
2022/12/04 07:03:17;;;;;;;10.72;5.60;;;;;;;;;;1767744;80;21042;-82
2022/12/04 07:05:44;;;;;;;8.88;6.20;;;;;;;;;;1764294;81;21034;-83
2022/12/04 07:08:10;;;;;;;10.58;6.17;;;;;;;;;;1760021;81;21098;-84
2022/12/04 07:10:37;;;;;;;11.28;6.80;;;;;;;;;;1763906;80;21074;-78
2022/12/04 07:13:04;;;;;;;12.58;6.00;;;;;;;;;;1761574;81;21027;-80
2022/12/04 07:15:31;;;;;;;11.33;5.58;;;;;;;;;;1764269;80;21066;-81
2022/12/04 07:17:58;;;;;;;10.00;5.70;;;;;;;;;;1761550;80;21505;-81
2022/12/04 07:20:24;;;;;;;10.55;5.25;;;;;;;;;;1738926;81;21028;-82
2022/12/04 07:22:50;;;;;;;9.50;4.78;;;;;;;;;;1760518;81;21055;-81
2022/12/04 07:25:16;;;;;;;9.90;4.90;;;;;;;;;;1765610;81;21024;-81
2022/12/04 07:27:42;;;;;;;10.15;5.12;;;;;;;;;;1763392;81;21062;-81
2022/12/04 07:30:09;;;;;;;10.70;5.42;;;;;;;;;;1764855;81;21003;-80
2022/12/04 07:32:35;;;;;;;9.48;5.40;;;;;;;;;;1763673;81;21086;-81
2022/12/04 07:35:01;;;;;;;11.93;5.90;;;;;;;;;;1763381;81;20987;-81
2022/12/04 07:37:27;;;;;;;13.70;6.17;;;;;;;;;;1768587;81;21042;-81
2022/12/04 07:39:53;;;;;;;9.78;5.42;;;;;;;;;;1764385;81;21513;-82
2022/12/04 07:42:19;;;;;;;13.65;5.65;;;;;;;;;;1763979;81;21019;-81
2022/12/04 07:44:46;;;;;;;15.03;7.87;;;;;;;;;;1764462;81;21031;-80
2022/12/04 07:47:12;;;;;;;18.62;9.50;;;;;;;;;;1767816;79;21178;-79
2022/12/04 07:49:38;;;;;;;11.28;5.30;;;;;;;;;;1774887;80;22261;-81
2022/12/04 07:52:04;;;;;;;13.15;6.70;;;;;;;;;;1779181;79;21002;-83
2022/12/04 07:54:30;;;;;;;13.20;5.33;;;;;;;;;;1775030;81;21501;-82
2022/12/04 07:56:56;;;;;;;8.88;4.67;;;;;;;;;;1774248;81;20979;-82
2022/12/04 07:59:22;;;;;;;12.05;5.83;;;;;;;;;;1774850;81;21554;-82
2022/12/04 08:01:48;;;;;;;13.55;4.92;;;;;;;;;;1776212;81;21489;-82
2022/12/04 08:04:14;;;;;;;8.98;5.03;;;;;;;;;;1775990;81;20990;-82
2022/12/04 08:06:40;;;;;;;9.48;4.83;;;;;;;;;;1776254;81;21021;-82
2022/12/04 08:09:06;;;;;;;8.30;4.62;;;;;;;;;;1776084;81;20998;-83
2022/12/04 08:11:32;;;;;;;11.38;6.03;;;;;;;;;;1776103;81;21034;-82
2022/12/04 08:14:00;;;;;;;9.53;4.65;;;;;;;;;;1775812;81;21069;-82
2022/12/04 08:16:27;;;;;;;12.28;5.95;;;;;;;;;;1776035;81;20986;-82
2022/12/04 08:18:53;;;;;;;9.78;5.37;;;;;;;;;;1774111;81;21051;-82
2022/12/04 08:21:20;;;;;;;10.20;5.15;;;;;;;;;;1774464;81;21011;-82
2022/12/04 08:23:46;;;;;;;10.45;4.90;;;;;;;;;;1775257;81;20943;-81
2022/12/04 08:26:12;;;;;;;10.23;5.92;;;;;;;;;;1775298;81;21002;-80
2022/12/04 08:28:38;;;;;;;11.60;6.58;;;;;;;;;;1775580;80;20978;-81
2022/12/04 08:31:09;;;;;;;11.22;5.35;;;;;;;;;;1776750;80;21019;-82
2022/12/04 08:33:35;;;;;;;10.80;5.03;;;;;;;;;;1782162;80;21286;-82
2022/12/04 08:36:01;;;;;;;11.35;5.40;;;;;;;;;;1774885;80;21093;-81
2022/12/04 08:38:27;;;;;;;9.33;5.12;;;;;;;;;;1751504;81;20963;-80
2022/12/04 08:40:53;;;;;;;12.70;6.12;;;;;;;;;;1779752;80;21017;-80
2022/12/04 08:43:19;;;;;;;9.60;5.45;;;;;;;;;;1775907;80;20987;-79
2022/12/04 08:45:47;;;;;;;10.28;5.22;;;;;;;;;;1786865;78;21960;-80
2022/12/04 08:48:14;;;;;;;10.32;5.67;;;;;;;;;;1773296;81;21066;-82
2022/12/04 08:50:42;;;;;;;9.20;5.28;;;;;;;;;;1762706;81;21017;-78
2022/12/04 08:53:08;;;;;;;13.62;5.90;;;;;;;;;;1761509;81;21036;-81
2022/12/04 08:55:34;;;;;;;13.72;6.55;;;;;;;;;;1765294;79;21507;-74
2022/12/04 08:58:00;;;;;;;12.18;6.33;;;;;;;;;;1764271;80;21668;-81
2022/12/04 09:00:26;;;;;;;11.03;5.83;;;;;;;;;;1765290;81;21297;-83
2022/12/04 09:02:52;;;;;;;11.00;4.70;;;;;;;;;;1761030;81;21031;-83
2022/12/04 09:05:18;;;;;;;10.23;5.33;;;;;;;;;;1761897;81;21609;-82
2022/12/04 09:07:45;;;;;;;8.85;5.67;;;;;;;;;;1761292;81;21134;-82
2022/12/04 09:10:12;;;;;;;12.00;5.30;;;;;;;;;;1765514;81;21000;-82
2022/12/04 09:12:38;;;;;;;10.48;4.85;;;;;;;;;;1762128;81;21067;-81
2022/12/04 09:15:05;;;;;;;11.65;5.05;;;;;;;;;;1762870;81;21083;-83
2022/12/04 09:17:33;;;;;;;8.53;4.72;;;;;;;;;;1762724;81;21072;-82
2022/12/04 09:19:59;;;;;;;10.15;4.72;;;;;;;;;;1762607;81;21601;-82
2022/12/04 09:22:25;;;;;;;12.73;5.05;;;;;;;;;;1769138;81;21024;-84
2022/12/04 09:24:52;;;;;;;11.20;6.12;;;;;;;;;;1778277;79;21031;-84
2022/12/04 09:27:19;;;;;;;10.78;5.87;;;;;;;;;;1756887;79;21011;-82
2022/12/04 09:29:45;;;;;;;12.03;5.37;;;;;;;;;;1761721;81;20995;-77
2022/12/04 09:32:11;;;;;;;7.80;4.58;;;;;;;;;;1761977;81;21543;-77
2022/12/04 09:34:37;;;;;;;12.30;5.45;;;;;;;;;;1762789;81;21586;-77
2022/12/04 09:37:04;;;;;;;18.40;7.15;;;;;;;;;;1762548;81;21567;-78
2022/12/04 09:39:30;;;;;;;10.00;5.67;;;;;;;;;;1762503;81;21075;-77
2022/12/04 09:42:05;;;;;;;14.43;6.70;;;;;;;;;;1762588;81;21036;-77
2022/12/04 09:44:35;;;;;;;7.83;5.50;;;;;;;;;;1762801;81;21065;-75
2022/12/04 09:47:03;;;;;;;12.47;5.75;;;;;;;;;;1762413;80;21085;-76
2022/12/04 09:49:31;;;;;;;11.97;5.50;;;;;;;;;;1770155;81;21565;-77
2022/12/04 09:51:57;;;;;;;11.40;6.33;;;;;;;;;;1773545;81;21034;-77
2022/12/04 09:54:25;;;;;;;13.70;5.92;;;;;;;;;;1772778;81;21062;-77
2022/12/04 09:56:56;;;;;;;12.20;6.10;;;;;;;;;;1773051;81;21050;-77
2022/12/04 09:59:22;;;;;;;9.13;5.47;;;;;;;;;;1773183;81;21023;-77
2022/12/04 10:01:50;;;;;;;10.68;5.00;;;;;;;;;;1773617;81;21002;-77
2022/12/04 10:04:16;;;;;;;11.05;5.85;;;;;;;;;;1773560;81;21023;-77
2022/12/04 10:06:57;;;;;;;10.95;6.00;;;;;;;;;;1773577;81;21065;-76
2022/12/04 10:09:36;;;;;;;13.90;5.05;;;;;;;;;;1773133;81;21656;-77
2022/12/04 10:12:07;;;;;;;8.25;4.60;;;;;;;;;;1773387;81;21596;-77
2022/12/04 10:14:50;;;;;;;8.65;4.87;;;;;;;;;;1773465;81;21041;-76
2022/12/04 10:17:33;;;;;;;12.43;5.17;;;;;;;;;;1773522;81;21089;-77
2022/12/04 10:20:01;;;;;;;9.18;5.55;;;;;;;;;;1773771;81;21037;-77
2022/12/04 10:22:35;;;;;;;8.88;4.78;;;;;;;;;;1773399;81;21097;-77
2022/12/04 10:25:05;;;;;;;9.53;4.65;;;;;;;;;;1773522;81;21053;-76
2022/12/04 10:27:33;;;;;;;9.30;5.22;;;;;;;;;;1773116;81;21054;-77
2022/12/04 10:30:03;;;;;;;9.50;5.00;;;;;;;;;;1772446;81;21010;-77
2022/12/04 10:32:31;;;;;;;10.93;5.37;;;;;;;;;;1773061;81;21030;-78
2022/12/04 10:34:59;;;;;;;8.23;5.05;;;;;;;;;;1772601;81;21046;-78
2022/12/04 10:37:25;;;;;;;11.73;5.70;;;;;;;;;;1770292;81;21014;-77
2022/12/04 10:39:55;;;;;;;9.40;4.75;;;;;;;;;;1773479;81;21512;-76
2022/12/04 10:42:24;;;;;;;8.18;4.78;;;;;;;;;;1773653;81;21046;-77
2022/12/04 10:44:50;;;;;;;10.88;4.97;;;;;;;;;;1772727;79;21081;-77
2022/12/04 10:47:16;;;;;;;11.48;5.20;;;;;;;;;;1773560;81;20998;-78
2022/12/04 10:49:42;;;;;;;7.25;4.05;;;;;;;;;;1775121;81;21014;-77
2022/12/04 10:52:10;;;;;;;12.05;5.22;;;;;;;;;;1775824;81;21038;-77
2022/12/04 10:54:39;;;;;;;7.05;4.42;;;;;;;;;;1775117;81;21521;-77
2022/12/04 10:57:06;;;;;;;10.85;5.30;;;;;;;;;;1776017;81;21048;-77
2022/12/04 10:59:32;;;;;;;8.15;4.55;;;;;;;;;;1776011;81;21563;-77
2022/12/04 11:02:01;;;;;;;9.78;4.95;;;;;;;;;;1775784;81;21041;-77
2022/12/04 11:04:27;;;;;;;8.65;5.00;;;;;;;;;;1775536;81;21038;-77
2022/12/04 11:07:03;;;;;;;13.58;5.50;;;;;;;;;;1776256;81;21509;-77
2022/12/04 11:09:29;;;;;;;9.50;5.17;;;;;;;;;;1776000;81;21049;-77
2022/12/04 11:11:57;;;;;;;8.85;4.50;;;;;;;;;;1776090;81;21053;-78
2022/12/04 11:14:23;;;;;;;9.75;5.53;;;;;;;;;;1790661;79;21068;-77
2022/12/04 11:16:52;;;;;;;8.10;4.47;;;;;;;;;;1784517;79;21076;-77
2022/12/04 11:19:20;;;;;;;10.20;4.65;;;;;;;;;;1777383;80;21034;-77
2022/12/04 11:21:46;;;;;;;7.37;4.00;;;;;;;;;;1773269;81;22191;-77
2022/12/04 11:24:20;;;;;;;9.05;4.37;;;;;;;;;;1775093;81;21050;-77
2022/12/04 11:26:46;;;;;;;8.53;4.60;;;;;;;;;;1776048;81;21025;-77
2022/12/04 11:29:13;;;;;;;8.28;4.83;;;;;;;;;;1775690;81;21589;-77
2022/12/04 11:31:39;;;;;;;8.20;4.17;;;;;;;;;;1775957;81;21041;-77
2022/12/04 11:34:10;;;;;;;10.55;4.72;;;;;;;;;;1775766;81;21066;-77
2022/12/04 11:36:39;;;;;;;7.78;3.92;;;;;;;;;;1775524;81;21062;-77
2022/12/04 11:39:12;;;;;;;7.50;4.58;;;;;;;;;;1775834;81;20983;-78
2022/12/04 11:41:38;;;;;;;7.60;3.92;;;;;;;;;;1775965;81;21443;-77
2022/12/04 11:44:05;;;;;;;7.65;4.00;;;;;;;;;;1776120;81;21057;-76
2022/12/04 11:46:32;;;;;;;9.95;4.37;;;;;;;;;;1775934;79;21101;-76
2022/12/04 11:48:58;;;;;;;8.33;4.58;;;;;;;;;;1773065;81;21565;-76
2022/12/04 11:51:42;;;;;;;13.03;5.78;;;;;;;;;;1764607;81;21078;-76
2022/12/04 11:54:12;;;;;;;10.20;4.22;;;;;;;;;;1764724;81;22180;-76
2022/12/04 11:56:41;;;;;;;7.85;3.30;;;;;;;;;;1764474;81;21649;-75
2022/12/04 11:59:18;;;;;;;7.70;3.87;;;;;;;;;;1763586;81;21051;-75
2022/12/04 12:01:46;;;;;;;8.08;4.20;;;;;;;;;;1764658;81;21030;-76
2022/12/04 12:04:14;;;;;;;7.70;4.12;;;;;;;;;;1764601;81;21047;-76
2022/12/04 12:06:45;;;;;;;5.00;3.12;;;;;;;;;;1764782;81;21038;-77
2022/12/04 12:09:29;;;;;;;8.15;3.60;;;;;;;;;;1764561;81;21050;-76
2022/12/04 12:11:57;;;;;;;5.90;3.87;;;;;;;;;;1764786;81;20994;-76
2022/12/04 12:14:39;;;;;;;8.75;3.40;;;;;;;;;;1764627;81;21042;-76
2022/12/04 12:17:20;;;;;;;5.60;3.30;;;;;;;;;;1764437;81;21597;-76
2022/12/04 12:19:52;;;;;;;7.08;3.37;;;;;;;;;;1764565;81;21648;-75
2022/12/04 12:22:36;;;;;;;8.48;3.42;;;;;;;;;;1764639;81;21324;-76
2022/12/04 12:25:04;;;;;;;6.90;3.90;;;;;;;;;;1764891;81;21022;-73
2022/12/04 12:27:32;;;;;;;5.65;3.10;;;;;;;;;;1768386;80;21075;-72
2022/12/04 12:30:06;;;;;;;8.30;4.85;;;;;;;;;;1773193;81;21003;-71
2022/12/04 12:32:34;;;;;;;20.45;10.43;;;;;;;;;;1763950;80;21034;-71
2022/12/04 12:35:02;;;;;;;7.58;4.05;;;;;;;;;;1758250;81;20991;-69
2022/12/04 12:37:30;;;;;;;6.20;3.80;;;;;;;;;;1762255;81;21030;-68
2022/12/04 12:39:58;;;;;;;7.35;3.90;;;;;;;;;;1759227;81;21527;-68
2022/12/04 12:42:26;;;;;;;6.92;3.70;;;;;;;;;;1763381;81;21487;-69
2022/12/04 12:45:11;;;;;;;7.10;3.30;;;;;;;;;;1769134;78;21015;-69
2022/12/04 12:47:39;;;;;;;10.98;5.92;;;;;;;;;;1762688;81;21004;-69
2022/12/04 12:50:07;;;;;;;9.00;5.12;;;;;;;;;;1769648;81;20987;-70
2022/12/04 13:05:38;;;;;;;12.47;6.62;;;;;;;;;;1812199;78;28137;-72
2022/12/04 13:08:23;;;;;;;19.73;9.58;;;;;;;;;;1790252;78;21077;-71
2022/12/04 13:10:51;;;;;;;12.55;6.58;;;;;;;;;;1794990;78;21523;-71
2022/12/04 13:13:21;;;;;;;12.05;7.08;;;;;;;;;;1794847;78;21083;-72
2022/12/04 13:15:49;;;;;;;9.73;5.67;;;;;;;;;;1804988;78;21058;-71
2022/12/04 13:18:16;;;;;;;11.00;5.17;;;;;;;;;;1756633;80;21004;-72
2022/12/04 13:20:44;;;;;;;15.05;9.20;;;;;;;;;;1757932;81;21039;-71
2022/12/04 13:23:19;;;;;;;13.45;8.48;;;;;;;;;;1762608;81;21609;-71
2022/12/04 13:25:57;;;;;;;13.88;8.55;;;;;;;;;;1758472;81;21027;-71
2022/12/04 13:28:25;;;;;;;15.65;9.00;;;;;;;;;;1758343;81;21052;-71
2022/12/04 13:30:56;;;;;;;10.43;6.95;;;;;;;;;;1760283;81;21106;-71
2022/12/04 13:33:27;;;;;;;10.10;6.25;;;;;;;;;;1762255;81;21040;-70
2022/12/04 13:35:59;;;;;;;13.70;7.28;;;;;;;;;;1760008;81;21040;-72
2022/12/04 13:38:29;;;;;;;16.65;9.90;;;;;;;;;;1749799;81;21059;-71
2022/12/04 13:40:57;;;;;;;13.40;7.83;;;;;;;;;;1761658;81;21547;-71
2022/12/04 13:43:28;;;;;;;10.38;5.83;;;;;;;;;;1762550;81;21059;-70
2022/12/04 13:45:55;;;;;;;9.70;5.50;;;;;;;;;;1758936;81;20977;-70
2022/12/04 13:48:36;;;;;;;7.58;3.77;;;;;;;;;;1758979;81;21064;-71
2022/12/04 13:51:03;;;;;;;8.90;4.45;;;;;;;;;;1760212;81;21090;-71
2022/12/04 13:53:34;;;;;;;6.72;4.05;;;;;;;;;;1760396;81;21044;-71
2022/12/04 13:56:00;;;;;;;8.43;4.80;;;;;;;;;;1765435;81;21097;-71
2022/12/04 13:58:28;;;;;;;9.13;4.83;;;;;;;;;;1746324;82;21064;-72
2022/12/04 14:01:01;;;;;;;13.85;7.08;;;;;;;;;;1735600;82;21063;-72
2022/12/04 14:03:34;;;;;;;13.93;6.08;;;;;;;;;;1758766;80;21038;-72
2022/12/04 14:06:04;;;;;;;7.03;4.15;;;;;;;;;;1719167;82;21012;-72
2022/12/04 14:08:38;;;;;;;5.20;3.20;;;;;;;;;;1763897;81;21050;-72
2022/12/04 14:11:06;;;;;;;6.97;4.25;;;;;;;;;;1764955;81;21058;-71
2022/12/04 14:13:34;;;;;;;63.85;31.00;;;;;;;;;;1744152;82;22133;-72
2022/12/04 14:16:18;;;;;;;8.80;5.10;;;;;;;;;;1726442;82;21079;-72
2022/12/04 14:18:52;;;;;;;9.45;5.33;;;;;;;;;;1758303;81;21526;-71
2022/12/04 14:21:18;;;;;;;10.98;4.62;;;;;;;;;;1768828;80;21013;-72
2022/12/04 14:36:42;;;;;;;8.00;4.78;;;;;;;;;;1833890;77;22120;-70
2022/12/04 14:39:22;;;;;;;8.83;4.65;;;;;;;;;;1790626;80;20961;-70
2022/12/04 14:41:49;;;;;;;8.95;4.83;;;;;;;;;;1765630;80;21026;-70
2022/12/04 14:44:23;;;;;;;13.00;7.65;;;;;;;;;;1764569;80;21036;-70
2022/12/04 14:46:49;;;;;;;30.77;19.17;;;;;;;;;;1778830;80;20993;-70
2022/12/04 14:49:23;;;;;;;31.37;20.55;;;;;;;;;;1762151;80;21024;-71
2022/12/04 14:51:57;;;;;;;7.92;5.70;;;;;;;;;;1767880;80;21100;-70
2022/12/04 14:54:34;;;;;;;13.90;9.53;;;;;;;;;;1779108;80;21068;-71
2022/12/04 14:57:18;;;;;;;14.47;6.15;;;;;;;;;;1792591;79;21527;-71
2022/12/04 14:59:46;;;;;;;23.20;13.18;;;;;;;;;;1764109;80;20965;-70
2022/12/04 15:02:16;;;;;;;11.30;6.95;;;;;;;;;;1772330;80;21177;-70
2022/12/04 15:04:45;;;;;;;22.30;12.58;;;;;;;;;;1791194;80;21052;-70
2022/12/04 15:07:12;;;;;;;14.75;8.70;;;;;;;;;;1792581;79;20986;-70
2022/12/04 15:12:33;;;;;;;12.55;8.05;;;;;;;;;;1771137;80;21029;-70
2022/12/04 15:15:09;;;;;;;6.85;4.45;;;;;;;;;;1792132;80;21376;-70
2022/12/04 15:17:36;;;;;;;8.70;4.53;;;;;;;;;;1792096;79;21067;-70
2022/12/04 15:20:09;;;;;;;8.25;4.55;;;;;;;;;;1785563;80;21040;-71
2022/12/04 15:22:35;;;;;;;8.05;4.90;;;;;;;;;;1770008;80;21547;-70
2022/12/04 15:25:02;;;;;;;7.58;3.75;;;;;;;;;;1791527;79;21020;-70
2022/12/04 15:27:28;;;;;;;8.48;4.67;;;;;;;;;;1777753;80;21063;-71
2022/12/04 15:29:54;;;;;;;10.55;5.35;;;;;;;;;;1751818;81;21015;-70
2022/12/04 15:32:20;;;;;;;13.13;5.67;;;;;;;;;;1728385;82;21005;-71
2022/12/04 15:34:53;;;;;;;10.23;4.78;;;;;;;;;;1724932;82;21010;-72
2022/12/04 15:37:26;;;;;;;8.30;5.10;;;;;;;;;;1710014;83;21059;-69
2022/12/04 15:39:52;;;;;;;9.30;4.73;;;;;;;;;;1704486;83;21062;-70
2022/12/04 15:42:23;;;;;;;7.53;4.40;;;;;;;;;;1723417;82;21678;-69
2022/12/04 15:44:53;;;;;;;6.33;3.52;;;;;;;;;;1766548;80;21020;-69
2022/12/04 15:47:20;;;;;;;7.72;4.22;;;;;;;;;;1772632;80;21009;-69
2022/12/04 15:49:46;;;;;;;7.85;4.33;;;;;;;;;;1767507;80;21022;-69
2022/12/04 15:52:14;;;;;;;6.33;3.87;;;;;;;;;;1771441;80;20974;-69
2022/12/04 15:54:41;;;;;;;8.23;4.42;;;;;;;;;;1765967;80;21061;-69
2022/12/04 15:57:09;;;;;;;17.70;6.28;;;;;;;;;;1783387;80;20981;-69
2022/12/04 15:59:35;;;;;;;9.63;4.55;;;;;;;;;;1781562;80;20990;-69
2022/12/04 16:02:03;;;;;;;7.85;4.70;;;;;;;;;;1779427;80;20985;-69
2022/12/04 16:04:34;;;;;;;10.23;4.70;;;;;;;;;;1772660;80;21036;-68
2022/12/04 16:06:57;;;;;;;12.07;6.58;;;;;;;;;;1768351;80;21041;-69
2022/12/04 16:09:23;;;;;;;12.60;6.08;;;;;;;;;;1770760;80;21628;-69
2022/12/04 16:11:57;;;;;;;11.48;5.80;;;;;;;;;;1778800;80;22372;-69
2022/12/04 16:14:23;;;;;;;11.20;6.15;;;;;;;;;;1768229;80;21068;-69
2022/12/04 16:16:50;;;;;;;10.32;5.60;;;;;;;;;;1770125;80;21000;-69
2022/12/04 16:19:18;;;;;;;13.93;7.78;;;;;;;;;;1775063;80;21028;-69
2022/12/04 16:21:44;;;;;;;9.40;5.03;;;;;;;;;;1765712;80;21485;-68
2022/12/04 16:24:10;;;;;;;8.23;4.35;;;;;;;;;;1772918;80;21064;-68
2022/12/04 16:26:36;;;;;;;14.75;6.83;;;;;;;;;;1770795;80;20965;-68
2022/12/04 16:29:03;;;;;;;13.55;5.85;;;;;;;;;;1769326;80;21028;-68
2022/12/04 16:31:29;;;;;;;8.45;5.35;;;;;;;;;;1758052;80;21338;-68
2022/12/04 16:33:55;;;;;;;10.05;5.05;;;;;;;;;;1768434;80;21013;-69
2022/12/04 16:36:21;;;;;;;9.83;6.08;;;;;;;;;;1767919;80;21060;-70
2022/12/04 16:38:47;;;;;;;7.95;4.30;;;;;;;;;;1760056;81;21033;-70
2022/12/04 16:41:13;;;;;;;8.05;5.08;;;;;;;;;;1766122;81;21002;-69
2022/12/04 16:43:40;;;;;;;9.98;5.17;;;;;;;;;;1758154;81;21014;-72
2022/12/04 16:46:07;;;;;;;10.03;5.05;;;;;;;;;;1748241;81;21006;-72
2022/12/04 16:48:35;;;;;;;7.50;4.05;;;;;;;;;;1764097;81;21010;-68
2022/12/04 16:51:01;;;;;;;8.98;4.35;;;;;;;;;;1770245;80;21005;-70
2022/12/04 16:53:27;;;;;;;8.55;4.17;;;;;;;;;;1763298;81;21520;-71
2022/12/04 16:55:54;;;;;;;12.20;5.03;;;;;;;;;;1764456;81;21041;-75
2022/12/04 16:58:20;;;;;;;12.05;5.60;;;;;;;;;;1752330;81;21138;-72
2022/12/04 17:00:51;;;;;;;8.40;4.92;;;;;;;;;;1771648;81;20974;-74
2022/12/04 17:03:21;;;;;;;11.95;5.87;;;;;;;;;;1764072;80;21064;-71
2022/12/04 17:05:47;;;;;;;10.90;4.58;;;;;;;;;;1774206;80;21029;-71
2022/12/04 17:08:13;;;;;;;10.43;5.47;;;;;;;;;;1761753;79;21048;-72
2022/12/04 17:10:39;;;;;;;14.07;6.15;;;;;;;;;;1759580;80;21028;-70
2022/12/04 17:13:06;;;;;;;9.10;4.87;;;;;;;;;;1778627;80;21013;-71
2022/12/04 17:15:32;;;;;;;10.35;5.42;;;;;;;;;;1777304;81;21484;-73
2022/12/04 17:17:59;;;;;;;10.38;5.15;;;;;;;;;;1776715;81;21167;-70
2022/12/04 17:20:25;;;;;;;7.95;4.30;;;;;;;;;;1766406;81;21189;-70
2022/12/04 17:22:51;;;;;;;10.13;5.65;;;;;;;;;;1753073;81;20953;-69
2022/12/04 17:25:17;;;;;;;9.55;5.15;;;;;;;;;;1763094;81;21536;-69
2022/12/04 17:27:43;;;;;;;8.15;5.33;;;;;;;;;;1776557;81;21057;-69
2022/12/04 17:30:10;;;;;;;7.12;4.58;;;;;;;;;;1768022;80;21013;-70
2022/12/04 17:32:35;;;;;;;13.35;6.53;;;;;;;;;;1765060;81;21041;-71
2022/12/04 17:35:02;;;;;;;10.38;5.95;;;;;;;;;;1754595;81;21009;-70
2022/12/04 17:37:29;;;;;;;11.28;5.87;;;;;;;;;;1772532;80;21044;-70
2022/12/04 17:39:56;;;;;;;14.10;7.20;;;;;;;;;;1772190;80;21091;-70
2022/12/04 17:42:22;;;;;;;9.55;5.05;;;;;;;;;;1768560;80;21149;-70
2022/12/04 17:44:48;;;;;;;8.10;5.17;;;;;;;;;;1769207;80;20978;-71
2022/12/04 17:47:15;;;;;;;8.35;4.50;;;;;;;;;;1766625;80;21496;-70
2022/12/04 17:49:41;;;;;;;7.53;4.22;;;;;;;;;;1772082;80;21480;-70
2022/12/04 17:52:07;;;;;;;7.55;4.50;;;;;;;;;;1774217;80;21014;-70
2022/12/04 17:54:34;;;;;;;7.70;4.12;;;;;;;;;;1775339;80;21124;-69
2022/12/04 17:57:00;;;;;;;9.35;5.03;;;;;;;;;;1774374;80;21081;-69
2022/12/04 17:59:26;;;;;;;7.78;5.08;;;;;;;;;;1776699;80;21488;-68
2022/12/04 18:01:52;;;;;;;8.88;4.33;;;;;;;;;;1775636;80;21016;-69
2022/12/04 18:04:19;;;;;;;9.23;5.00;;;;;;;;;;1777723;79;21669;-70
2022/12/04 18:06:45;;;;;;;15.43;9.30;;;;;;;;;;1778147;80;20993;-69
2022/12/04 18:09:12;;;;;;;13.03;6.17;;;;;;;;;;1774875;80;21060;-69
2022/12/04 18:11:39;;;;;;;12.60;6.08;;;;;;;;;;1720752;83;21027;-69
2022/12/04 18:14:06;;;;;;;11.35;5.62;;;;;;;;;;1719947;83;21070;-69
2022/12/04 18:16:33;;;;;;;11.88;5.60;;;;;;;;;;1714084;83;21088;-70
2022/12/04 18:19:00;;;;;;;13.50;7.67;;;;;;;;;;1721821;83;21639;-69
2022/12/04 18:21:26;;;;;;;11.73;6.08;;;;;;;;;;1711483;83;21022;-70
2022/12/04 18:23:54;;;;;;;15.23;7.65;;;;;;;;;;1711269;83;21034;-70
2022/12/04 18:26:21;;;;;;;15.43;6.67;;;;;;;;;;1717344;83;21053;-69
2022/12/04 18:28:48;;;;;;;11.50;4.62;;;;;;;;;;1716262;83;21112;-69
2022/12/04 18:31:15;;;;;;;25.37;11.03;;;;;;;;;;1715063;83;21018;-70
2022/12/04 18:33:41;;;;;;;10.58;6.55;;;;;;;;;;1713459;83;21026;-69
2022/12/04 18:36:09;;;;;;;14.47;6.62;;;;;;;;;;1713778;83;21035;-70
2022/12/04 18:38:35;;;;;;;8.53;4.50;;;;;;;;;;1713970;83;21034;-70